sensor_id;sensor_type;location;lat;lon;timestamp;P1;durP1;ratioP1;P2;durP2;ratioP2
58123;SDS011;46725;48.068;20.832;2022-09-03T00:00:45;13.20;;;4.65;;
58123;SDS011;46725;48.068;20.832;2022-09-03T00:03:48;9.10;;;4.50;;
58123;SDS011;46725;48.068;20.832;2022-09-03T00:06:13;12.13;;;5.07;;
58123;SDS011;46725;48.068;20.832;2022-09-03T00:08:45;11.30;;;4.97;;
58123;SDS011;46725;48.068;20.832;2022-09-03T00:11:26;10.18;;;5.60;;
58123;SDS011;46725;48.068;20.832;2022-09-03T00:13:58;9.40;;;4.97;;
58123;SDS011;46725;48.068;20.832;2022-09-03T00:16:29;10.15;;;5.60;;
58123;SDS011;46725;48.068;20.832;2022-09-03T00:18:57;11.23;;;5.00;;
58123;SDS011;46725;48.068;20.832;2022-09-03T00:24:03;8.88;;;5.63;;
58123;SDS011;46725;48.068;20.832;2022-09-03T00:26:32;13.73;;;7.03;;
58123;SDS011;46725;48.068;20.832;2022-09-03T00:29:10;11.02;;;5.47;;
58123;SDS011;46725;48.068;20.832;2022-09-03T00:31:46;11.93;;;5.28;;
58123;SDS011;46725;48.068;20.832;2022-09-03T00:34:22;12.05;;;5.80;;
58123;SDS011;46725;48.068;20.832;2022-09-03T00:36:51;9.38;;;5.82;;
58123;SDS011;46725;48.068;20.832;2022-09-03T00:39:18;9.82;;;5.97;;
58123;SDS011;46725;48.068;20.832;2022-09-03T00:42:02;18.45;;;6.50;;
58123;SDS011;46725;48.068;20.832;2022-09-03T00:55:24;9.85;;;5.38;;
58123;SDS011;46725;48.068;20.832;2022-09-03T00:57:57;14.25;;;5.82;;
58123;SDS011;46725;48.068;20.832;2022-09-03T01:00:26;12.02;;;5.63;;
58123;SDS011;46725;48.068;20.832;2022-09-03T01:03:06;10.65;;;5.40;;
58123;SDS011;46725;48.068;20.832;2022-09-03T01:13:40;12.23;;;6.00;;
58123;SDS011;46725;48.068;20.832;2022-09-03T01:16:53;14.05;;;6.40;;
58123;SDS011;46725;48.068;20.832;2022-09-03T01:18:59;11.80;;;5.57;;
58123;SDS011;46725;48.068;20.832;2022-09-03T01:30:00;9.60;;;5.35;;
58123;SDS011;46725;48.068;20.832;2022-09-03T01:40:16;17.70;;;5.38;;
58123;SDS011;46725;48.068;20.832;2022-09-03T01:50:08;12.95;;;5.45;;
58123;SDS011;46725;48.068;20.832;2022-09-03T02:02:32;9.95;;;4.72;;
58123;SDS011;46725;48.068;20.832;2022-09-03T02:05:04;10.43;;;5.32;;
58123;SDS011;46725;48.068;20.832;2022-09-03T02:07:34;8.85;;;4.75;;
58123;SDS011;46725;48.068;20.832;2022-09-03T02:10:02;10.20;;;5.57;;
58123;SDS011;46725;48.068;20.832;2022-09-03T02:12:29;9.65;;;4.90;;
58123;SDS011;46725;48.068;20.832;2022-09-03T02:14:58;8.85;;;5.32;;
58123;SDS011;46725;48.068;20.832;2022-09-03T02:17:25;15.98;;;5.15;;
58123;SDS011;46725;48.068;20.832;2022-09-03T02:19:51;9.63;;;5.10;;
58123;SDS011;46725;48.068;20.832;2022-09-03T02:22:17;9.48;;;4.50;;
58123;SDS011;46725;48.068;20.832;2022-09-03T02:24:43;8.57;;;4.82;;
58123;SDS011;46725;48.068;20.832;2022-09-03T02:27:09;7.63;;;4.00;;
58123;SDS011;46725;48.068;20.832;2022-09-03T02:29:35;8.00;;;4.35;;
58123;SDS011;46725;48.068;20.832;2022-09-03T02:32:01;11.68;;;4.78;;
58123;SDS011;46725;48.068;20.832;2022-09-03T02:34:28;10.77;;;4.65;;
58123;SDS011;46725;48.068;20.832;2022-09-03T02:36:54;12.85;;;4.97;;
58123;SDS011;46725;48.068;20.832;2022-09-03T02:39:20;11.48;;;4.88;;
58123;SDS011;46725;48.068;20.832;2022-09-03T02:41:50;11.23;;;5.00;;
58123;SDS011;46725;48.068;20.832;2022-09-03T02:44:26;11.25;;;4.70;;
58123;SDS011;46725;48.068;20.832;2022-09-03T02:47:00;10.23;;;4.55;;
58123;SDS011;46725;48.068;20.832;2022-09-03T02:49:26;12.60;;;4.90;;
58123;SDS011;46725;48.068;20.832;2022-09-03T02:51:56;8.60;;;4.75;;
58123;SDS011;46725;48.068;20.832;2022-09-03T02:54:24;11.15;;;4.88;;
58123;SDS011;46725;48.068;20.832;2022-09-03T02:56:51;10.38;;;4.30;;
58123;SDS011;46725;48.068;20.832;2022-09-03T02:59:17;8.50;;;4.40;;
58123;SDS011;46725;48.068;20.832;2022-09-03T03:01:43;8.23;;;4.80;;
58123;SDS011;46725;48.068;20.832;2022-09-03T03:04:09;7.63;;;4.40;;
58123;SDS011;46725;48.068;20.832;2022-09-03T03:06:35;12.07;;;5.68;;
58123;SDS011;46725;48.068;20.832;2022-09-03T03:09:01;8.40;;;4.93;;
58123;SDS011;46725;48.068;20.832;2022-09-03T03:11:29;10.32;;;4.60;;
58123;SDS011;46725;48.068;20.832;2022-09-03T03:13:55;8.10;;;4.43;;
58123;SDS011;46725;48.068;20.832;2022-09-03T03:16:21;11.02;;;4.78;;
58123;SDS011;46725;48.068;20.832;2022-09-03T03:18:47;8.45;;;4.70;;
58123;SDS011;46725;48.068;20.832;2022-09-03T03:21:15;9.93;;;4.80;;
58123;SDS011;46725;48.068;20.832;2022-09-03T03:23:41;9.68;;;4.57;;
58123;SDS011;46725;48.068;20.832;2022-09-03T03:26:08;10.13;;;4.63;;
58123;SDS011;46725;48.068;20.832;2022-09-03T03:28:34;10.43;;;4.75;;
58123;SDS011;46725;48.068;20.832;2022-09-03T03:31:07;9.18;;;5.13;;
58123;SDS011;46725;48.068;20.832;2022-09-03T03:33:35;9.48;;;4.65;;
58123;SDS011;46725;48.068;20.832;2022-09-03T03:36:08;8.75;;;4.28;;
58123;SDS011;46725;48.068;20.832;2022-09-03T03:38:35;9.88;;;4.93;;
58123;SDS011;46725;48.068;20.832;2022-09-03T03:43:33;9.30;;;5.03;;
58123;SDS011;46725;48.068;20.832;2022-09-03T03:45:59;8.82;;;4.72;;
58123;SDS011;46725;48.068;20.832;2022-09-03T03:48:25;8.43;;;4.80;;
58123;SDS011;46725;48.068;20.832;2022-09-03T03:50:52;8.13;;;4.57;;
58123;SDS011;46725;48.068;20.832;2022-09-03T03:53:18;8.95;;;4.63;;
58123;SDS011;46725;48.068;20.832;2022-09-03T03:55:54;9.57;;;4.93;;
58123;SDS011;46725;48.068;20.832;2022-09-03T03:58:20;9.68;;;5.25;;
58123;SDS011;46725;48.068;20.832;2022-09-03T04:00:46;9.80;;;6.00;;
58123;SDS011;46725;48.068;20.832;2022-09-03T04:03:14;8.93;;;5.15;;
58123;SDS011;46725;48.068;20.832;2022-09-03T04:05:40;12.00;;;5.85;;
58123;SDS011;46725;48.068;20.832;2022-09-03T04:08:06;11.65;;;6.05;;
58123;SDS011;46725;48.068;20.832;2022-09-03T04:10:32;11.20;;;5.68;;
58123;SDS011;46725;48.068;20.832;2022-09-03T04:12:58;10.23;;;5.80;;
58123;SDS011;46725;48.068;20.832;2022-09-03T04:15:25;11.27;;;5.63;;
58123;SDS011;46725;48.068;20.832;2022-09-03T04:17:53;12.00;;;6.00;;
58123;SDS011;46725;48.068;20.832;2022-09-03T04:20:19;9.95;;;6.05;;
58123;SDS011;46725;48.068;20.832;2022-09-03T04:22:45;11.13;;;5.88;;
58123;SDS011;46725;48.068;20.832;2022-09-03T04:25:11;11.10;;;5.50;;
58123;SDS011;46725;48.068;20.832;2022-09-03T04:27:37;12.50;;;5.65;;
58123;SDS011;46725;48.068;20.832;2022-09-03T04:30:03;11.05;;;5.75;;
58123;SDS011;46725;48.068;20.832;2022-09-03T04:32:29;10.18;;;5.43;;
58123;SDS011;46725;48.068;20.832;2022-09-03T04:35:14;8.65;;;4.93;;
58123;SDS011;46725;48.068;20.832;2022-09-03T04:37:40;10.73;;;4.82;;
58123;SDS011;46725;48.068;20.832;2022-09-03T04:40:06;11.48;;;5.35;;
58123;SDS011;46725;48.068;20.832;2022-09-03T04:42:32;9.15;;;4.63;;
58123;SDS011;46725;48.068;20.832;2022-09-03T04:44:58;9.55;;;4.57;;
58123;SDS011;46725;48.068;20.832;2022-09-03T04:47:25;8.18;;;4.38;;
58123;SDS011;46725;48.068;20.832;2022-09-03T04:49:52;8.65;;;4.38;;
58123;SDS011;46725;48.068;20.832;2022-09-03T04:52:19;8.18;;;4.25;;
58123;SDS011;46725;48.068;20.832;2022-09-03T04:54:45;8.30;;;3.83;;
58123;SDS011;46725;48.068;20.832;2022-09-03T04:57:11;8.23;;;4.10;;
58123;SDS011;46725;48.068;20.832;2022-09-03T04:59:37;6.63;;;4.40;;
58123;SDS011;46725;48.068;20.832;2022-09-03T05:02:05;7.05;;;3.78;;
58123;SDS011;46725;48.068;20.832;2022-09-03T05:04:32;7.75;;;4.47;;
58123;SDS011;46725;48.068;20.832;2022-09-03T05:06:58;10.38;;;3.97;;
58123;SDS011;46725;48.068;20.832;2022-09-03T05:09:24;6.60;;;3.47;;
58123;SDS011;46725;48.068;20.832;2022-09-03T05:11:50;7.15;;;4.22;;
58123;SDS011;46725;48.068;20.832;2022-09-03T05:14:16;9.27;;;3.80;;
58123;SDS011;46725;48.068;20.832;2022-09-03T05:16:42;7.57;;;4.22;;
58123;SDS011;46725;48.068;20.832;2022-09-03T05:19:08;7.03;;;3.78;;
58123;SDS011;46725;48.068;20.832;2022-09-03T05:21:34;7.68;;;4.97;;
58123;SDS011;46725;48.068;20.832;2022-09-03T05:24:01;8.80;;;4.15;;
58123;SDS011;46725;48.068;20.832;2022-09-03T05:26:28;6.53;;;3.65;;
58123;SDS011;46725;48.068;20.832;2022-09-03T05:28:55;6.72;;;4.22;;
58123;SDS011;46725;48.068;20.832;2022-09-03T05:31:22;12.38;;;4.45;;
58123;SDS011;46725;48.068;20.832;2022-09-03T05:33:51;8.00;;;4.05;;
58123;SDS011;46725;48.068;20.832;2022-09-03T05:36:19;8.80;;;4.13;;
58123;SDS011;46725;48.068;20.832;2022-09-03T05:38:46;8.43;;;3.95;;
58123;SDS011;46725;48.068;20.832;2022-09-03T05:41:13;7.03;;;3.75;;
58123;SDS011;46725;48.068;20.832;2022-09-03T05:43:40;7.50;;;3.90;;
58123;SDS011;46725;48.068;20.832;2022-09-03T05:46:10;7.30;;;3.85;;
58123;SDS011;46725;48.068;20.832;2022-09-03T05:48:38;9.18;;;3.83;;
58123;SDS011;46725;48.068;20.832;2022-09-03T05:51:05;8.23;;;3.85;;
58123;SDS011;46725;48.068;20.832;2022-09-03T05:53:32;8.65;;;4.07;;
58123;SDS011;46725;48.068;20.832;2022-09-03T05:55:59;7.10;;;4.38;;
58123;SDS011;46725;48.068;20.832;2022-09-03T05:58:35;9.95;;;4.63;;
58123;SDS011;46725;48.068;20.832;2022-09-03T06:01:13;8.82;;;4.22;;
58123;SDS011;46725;48.068;20.832;2022-09-03T06:03:40;9.25;;;4.85;;
58123;SDS011;46725;48.068;20.832;2022-09-03T06:06:06;9.20;;;4.60;;
58123;SDS011;46725;48.068;20.832;2022-09-03T06:08:33;9.82;;;4.65;;
58123;SDS011;46725;48.068;20.832;2022-09-03T06:11:00;8.13;;;4.65;;
58123;SDS011;46725;48.068;20.832;2022-09-03T06:13:28;6.80;;;4.13;;
58123;SDS011;46725;48.068;20.832;2022-09-03T06:15:57;8.57;;;4.75;;
58123;SDS011;46725;48.068;20.832;2022-09-03T06:18:24;10.23;;;5.00;;
58123;SDS011;46725;48.068;20.832;2022-09-03T06:20:57;10.07;;;4.45;;
58123;SDS011;46725;48.068;20.832;2022-09-03T06:23:24;9.57;;;3.92;;
58123;SDS011;46725;48.068;20.832;2022-09-03T06:28:30;8.40;;;4.40;;
58123;SDS011;46725;48.068;20.832;2022-09-03T06:30:58;9.57;;;4.05;;
58123;SDS011;46725;48.068;20.832;2022-09-03T06:33:25;7.40;;;4.20;;
58123;SDS011;46725;48.068;20.832;2022-09-03T06:35:52;8.75;;;4.30;;
58123;SDS011;46725;48.068;20.832;2022-09-03T06:38:21;7.28;;;3.75;;
58123;SDS011;46725;48.068;20.832;2022-09-03T06:40:54;7.57;;;3.78;;
58123;SDS011;46725;48.068;20.832;2022-09-03T06:43:21;8.98;;;4.07;;
58123;SDS011;46725;48.068;20.832;2022-09-03T06:45:54;8.93;;;4.43;;
58123;SDS011;46725;48.068;20.832;2022-09-03T06:48:21;8.90;;;4.30;;
58123;SDS011;46725;48.068;20.832;2022-09-03T06:50:53;7.22;;;4.18;;
58123;SDS011;46725;48.068;20.832;2022-09-03T06:53:21;11.27;;;4.13;;
58123;SDS011;46725;48.068;20.832;2022-09-03T06:55:54;8.07;;;3.88;;
58123;SDS011;46725;48.068;20.832;2022-09-03T06:58:20;8.05;;;4.05;;
58123;SDS011;46725;48.068;20.832;2022-09-03T07:00:47;10.63;;;4.57;;
58123;SDS011;46725;48.068;20.832;2022-09-03T07:03:14;8.52;;;4.07;;
58123;SDS011;46725;48.068;20.832;2022-09-03T07:05:41;8.07;;;4.05;;
58123;SDS011;46725;48.068;20.832;2022-09-03T07:08:08;6.82;;;4.10;;
58123;SDS011;46725;48.068;20.832;2022-09-03T07:10:37;6.45;;;3.53;;
58123;SDS011;46725;48.068;20.832;2022-09-03T07:13:03;9.60;;;5.07;;
58123;SDS011;46725;48.068;20.832;2022-09-03T07:15:33;8.18;;;4.85;;
58123;SDS011;46725;48.068;20.832;2022-09-03T07:17:59;10.57;;;4.57;;
58123;SDS011;46725;48.068;20.832;2022-09-03T07:20:25;7.90;;;4.00;;
58123;SDS011;46725;48.068;20.832;2022-09-03T07:22:54;8.63;;;4.65;;
58123;SDS011;46725;48.068;20.832;2022-09-03T07:25:21;6.05;;;3.72;;
58123;SDS011;46725;48.068;20.832;2022-09-03T07:27:47;10.20;;;4.57;;
58123;SDS011;46725;48.068;20.832;2022-09-03T07:30:15;10.38;;;4.30;;
58123;SDS011;46725;48.068;20.832;2022-09-03T07:32:43;8.45;;;4.97;;
58123;SDS011;46725;48.068;20.832;2022-09-03T07:35:10;8.25;;;4.38;;
58123;SDS011;46725;48.068;20.832;2022-09-03T07:37:39;6.43;;;3.80;;
58123;SDS011;46725;48.068;20.832;2022-09-03T07:40:05;9.98;;;4.05;;
58123;SDS011;46725;48.068;20.832;2022-09-03T07:42:32;8.48;;;4.85;;
58123;SDS011;46725;48.068;20.832;2022-09-03T07:45:00;7.63;;;4.45;;
58123;SDS011;46725;48.068;20.832;2022-09-03T07:47:29;8.13;;;3.65;;
58123;SDS011;46725;48.068;20.832;2022-09-03T07:49:56;9.25;;;4.95;;
58123;SDS011;46725;48.068;20.832;2022-09-03T07:52:22;11.48;;;4.78;;
58123;SDS011;46725;48.068;20.832;2022-09-03T07:54:48;8.93;;;4.05;;
58123;SDS011;46725;48.068;20.832;2022-09-03T07:57:15;8.82;;;3.90;;
58123;SDS011;46725;48.068;20.832;2022-09-03T07:59:41;6.45;;;3.60;;
58123;SDS011;46725;48.068;20.832;2022-09-03T08:02:07;9.93;;;4.38;;
58123;SDS011;46725;48.068;20.832;2022-09-03T08:04:33;8.30;;;4.60;;
58123;SDS011;46725;48.068;20.832;2022-09-03T08:07:00;7.95;;;3.75;;
58123;SDS011;46725;48.068;20.832;2022-09-03T08:09:27;7.13;;;3.83;;
58123;SDS011;46725;48.068;20.832;2022-09-03T08:11:53;6.43;;;3.40;;
58123;SDS011;46725;48.068;20.832;2022-09-03T08:14:19;7.43;;;3.78;;
58123;SDS011;46725;48.068;20.832;2022-09-03T08:16:46;8.55;;;3.72;;
58123;SDS011;46725;48.068;20.832;2022-09-03T08:19:12;6.75;;;3.65;;
58123;SDS011;46725;48.068;20.832;2022-09-03T08:21:39;11.40;;;4.38;;
58123;SDS011;46725;48.068;20.832;2022-09-03T08:24:09;12.32;;;4.15;;
58123;SDS011;46725;48.068;20.832;2022-09-03T08:26:37;7.82;;;4.43;;
58123;SDS011;46725;48.068;20.832;2022-09-03T08:29:03;6.85;;;4.00;;
58123;SDS011;46725;48.068;20.832;2022-09-03T08:31:30;9.75;;;3.83;;
58123;SDS011;46725;48.068;20.832;2022-09-03T08:33:56;7.18;;;3.88;;
58123;SDS011;46725;48.068;20.832;2022-09-03T08:36:27;7.43;;;4.05;;
58123;SDS011;46725;48.068;20.832;2022-09-03T08:38:59;9.98;;;4.18;;
58123;SDS011;46725;48.068;20.832;2022-09-03T08:47:13;12.00;;;4.57;;
58123;SDS011;46725;48.068;20.832;2022-09-03T08:49:23;8.65;;;4.40;;
58123;SDS011;46725;48.068;20.832;2022-09-03T08:51:51;6.82;;;3.80;;
58123;SDS011;46725;48.068;20.832;2022-09-03T08:54:19;10.00;;;4.30;;
58123;SDS011;46725;48.068;20.832;2022-09-03T08:56:46;6.93;;;4.32;;
58123;SDS011;46725;48.068;20.832;2022-09-03T08:59:12;7.78;;;3.95;;
58123;SDS011;46725;48.068;20.832;2022-09-03T09:01:55;6.53;;;3.78;;
58123;SDS011;46725;48.068;20.832;2022-09-03T09:15:00;9.23;;;3.88;;
58123;SDS011;46725;48.068;20.832;2022-09-03T09:17:54;8.73;;;3.50;;
58123;SDS011;46725;48.068;20.832;2022-09-03T09:20:25;8.43;;;3.55;;
58123;SDS011;46725;48.068;20.832;2022-09-03T09:23:00;9.88;;;3.47;;
58123;SDS011;46725;48.068;20.832;2022-09-03T09:25:28;8.93;;;4.20;;
58123;SDS011;46725;48.068;20.832;2022-09-03T09:30:21;6.78;;;3.50;;
58123;SDS011;46725;48.068;20.832;2022-09-03T09:32:48;9.55;;;3.83;;
58123;SDS011;46725;48.068;20.832;2022-09-03T09:35:14;8.15;;;3.53;;
58123;SDS011;46725;48.068;20.832;2022-09-03T09:38:00;5.78;;;3.13;;
58123;SDS011;46725;48.068;20.832;2022-09-03T09:40:31;6.00;;;3.15;;
58123;SDS011;46725;48.068;20.832;2022-09-03T09:43:04;6.85;;;3.60;;
58123;SDS011;46725;48.068;20.832;2022-09-03T09:45:31;7.97;;;3.05;;
58123;SDS011;46725;48.068;20.832;2022-09-03T09:47:58;6.55;;;3.42;;
58123;SDS011;46725;48.068;20.832;2022-09-03T09:50:24;6.22;;;2.92;;
58123;SDS011;46725;48.068;20.832;2022-09-03T09:53:04;5.40;;;3.17;;
58123;SDS011;46725;48.068;20.832;2022-09-03T09:55:47;8.43;;;3.50;;
58123;SDS011;46725;48.068;20.832;2022-09-03T09:58:13;6.88;;;3.67;;
58123;SDS011;46725;48.068;20.832;2022-09-03T10:00:39;8.07;;;3.33;;
58123;SDS011;46725;48.068;20.832;2022-09-03T10:03:09;9.13;;;3.03;;
58123;SDS011;46725;48.068;20.832;2022-09-03T10:05:37;5.72;;;2.90;;
58123;SDS011;46725;48.068;20.832;2022-09-03T10:08:25;7.10;;;2.50;;
58123;SDS011;46725;48.068;20.832;2022-09-03T10:10:50;8.60;;;2.47;;
58123;SDS011;46725;48.068;20.832;2022-09-03T10:13:18;6.32;;;2.80;;
58123;SDS011;46725;48.068;20.832;2022-09-03T10:21:14;5.18;;;2.90;;
58123;SDS011;46725;48.068;20.832;2022-09-03T10:23:55;5.55;;;2.80;;
58123;SDS011;46725;48.068;20.832;2022-09-03T10:26:22;4.35;;;2.30;;
58123;SDS011;46725;48.068;20.832;2022-09-03T10:29:02;6.60;;;2.35;;
58123;SDS011;46725;48.068;20.832;2022-09-03T10:49:30;3.72;;;2.00;;
58123;SDS011;46725;48.068;20.832;2022-09-03T10:52:02;4.63;;;1.98;;
58123;SDS011;46725;48.068;20.832;2022-09-03T10:54:31;4.22;;;2.03;;
58123;SDS011;46725;48.068;20.832;2022-09-03T10:57:18;4.78;;;2.20;;
58123;SDS011;46725;48.068;20.832;2022-09-03T11:02:33;4.88;;;2.13;;
58123;SDS011;46725;48.068;20.832;2022-09-03T11:07:38;7.00;;;2.22;;
58123;SDS011;46725;48.068;20.832;2022-09-03T11:10:13;4.88;;;2.28;;
58123;SDS011;46725;48.068;20.832;2022-09-03T11:12:45;5.63;;;2.25;;
58123;SDS011;46725;48.068;20.832;2022-09-03T11:18:00;7.68;;;2.40;;
58123;SDS011;46725;48.068;20.832;2022-09-03T11:20:27;3.58;;;1.83;;
58123;SDS011;46725;48.068;20.832;2022-09-03T11:23:01;3.95;;;1.88;;
58123;SDS011;46725;48.068;20.832;2022-09-03T11:25:31;4.55;;;2.03;;
58123;SDS011;46725;48.068;20.832;2022-09-03T11:30:28;6.03;;;2.08;;
58123;SDS011;46725;48.068;20.832;2022-09-03T11:32:59;4.55;;;2.30;;
58123;SDS011;46725;48.068;20.832;2022-09-03T11:45:48;3.85;;;1.80;;
58123;SDS011;46725;48.068;20.832;2022-09-03T11:50:59;5.22;;;2.42;;
58123;SDS011;46725;48.068;20.832;2022-09-03T11:53:26;6.72;;;2.10;;
58123;SDS011;46725;48.068;20.832;2022-09-03T11:56:19;4.38;;;2.20;;
58123;SDS011;46725;48.068;20.832;2022-09-03T11:58:45;13.52;;;2.85;;
58123;SDS011;46725;48.068;20.832;2022-09-03T12:01:12;5.60;;;2.00;;
58123;SDS011;46725;48.068;20.832;2022-09-03T12:11:34;3.70;;;2.08;;
58123;SDS011;46725;48.068;20.832;2022-09-03T12:14:01;3.95;;;2.10;;
58123;SDS011;46725;48.068;20.832;2022-09-03T12:19:05;5.22;;;2.10;;
58123;SDS011;46725;48.068;20.832;2022-09-03T12:21:38;4.20;;;1.98;;
58123;SDS011;46725;48.068;20.832;2022-09-03T12:24:05;5.45;;;2.45;;
58123;SDS011;46725;48.068;20.832;2022-09-03T12:26:37;4.50;;;2.58;;
58123;SDS011;46725;48.068;20.832;2022-09-03T12:29:03;4.68;;;2.45;;
58123;SDS011;46725;48.068;20.832;2022-09-03T12:31:31;8.38;;;2.72;;
58123;SDS011;46725;48.068;20.832;2022-09-03T12:34:01;5.10;;;2.58;;
58123;SDS011;46725;48.068;20.832;2022-09-03T12:36:35;7.43;;;2.58;;
58123;SDS011;46725;48.068;20.832;2022-09-03T12:39:15;6.75;;;2.10;;
58123;SDS011;46725;48.068;20.832;2022-09-03T12:42:00;6.95;;;2.40;;
58123;SDS011;46725;48.068;20.832;2022-09-03T12:44:31;5.63;;;2.30;;
58123;SDS011;46725;48.068;20.832;2022-09-03T12:47:02;3.88;;;2.33;;
58123;SDS011;46725;48.068;20.832;2022-09-03T12:49:39;5.93;;;2.70;;
58123;SDS011;46725;48.068;20.832;2022-09-03T12:54:52;10.10;;;2.17;;
58123;SDS011;46725;48.068;20.832;2022-09-03T12:57:23;4.75;;;2.38;;
58123;SDS011;46725;48.068;20.832;2022-09-03T12:59:53;6.53;;;2.22;;
58123;SDS011;46725;48.068;20.832;2022-09-03T13:02:23;3.33;;;1.70;;
58123;SDS011;46725;48.068;20.832;2022-09-03T13:04:50;4.38;;;2.10;;
58123;SDS011;46725;48.068;20.832;2022-09-03T13:07:24;5.50;;;2.30;;
58123;SDS011;46725;48.068;20.832;2022-09-03T13:09:51;4.60;;;1.90;;
58123;SDS011;46725;48.068;20.832;2022-09-03T13:12:23;5.88;;;2.60;;
58123;SDS011;46725;48.068;20.832;2022-09-03T13:14:53;4.72;;;2.22;;
58123;SDS011;46725;48.068;20.832;2022-09-03T13:22:24;7.13;;;2.22;;
58123;SDS011;46725;48.068;20.832;2022-09-03T13:32:35;4.32;;;1.90;;
58123;SDS011;46725;48.068;20.832;2022-09-03T13:37:44;10.32;;;2.13;;
58123;SDS011;46725;48.068;20.832;2022-09-03T13:40:15;4.63;;;2.10;;
58123;SDS011;46725;48.068;20.832;2022-09-03T13:42:44;6.65;;;2.20;;
58123;SDS011;46725;48.068;20.832;2022-09-03T13:45:34;3.30;;;1.63;;
58123;SDS011;46725;48.068;20.832;2022-09-03T13:48:13;5.85;;;2.05;;
58123;SDS011;46725;48.068;20.832;2022-09-03T13:51:18;3.88;;;1.75;;
58123;SDS011;46725;48.068;20.832;2022-09-03T13:58:56;4.65;;;1.90;;
58123;SDS011;46725;48.068;20.832;2022-09-03T14:01:26;3.90;;;1.70;;
58123;SDS011;46725;48.068;20.832;2022-09-03T14:03:54;4.57;;;1.80;;
58123;SDS011;46725;48.068;20.832;2022-09-03T14:19:04;4.03;;;2.03;;
58123;SDS011;46725;48.068;20.832;2022-09-03T14:21:38;5.18;;;2.50;;
58123;SDS011;46725;48.068;20.832;2022-09-03T14:24:09;10.50;;;2.25;;
58123;SDS011;46725;48.068;20.832;2022-09-03T14:26:37;4.60;;;2.08;;
58123;SDS011;46725;48.068;20.832;2022-09-03T14:29:14;8.07;;;3.65;;
58123;SDS011;46725;48.068;20.832;2022-09-03T14:31:47;4.75;;;2.53;;
58123;SDS011;46725;48.068;20.832;2022-09-03T14:47:34;3.83;;;1.92;;
58123;SDS011;46725;48.068;20.832;2022-09-03T14:52:52;6.22;;;3.28;;
58123;SDS011;46725;48.068;20.832;2022-09-03T15:00:20;4.03;;;1.60;;
58123;SDS011;46725;48.068;20.832;2022-09-03T15:03:12;3.78;;;1.70;;
58123;SDS011;46725;48.068;20.832;2022-09-03T15:08:31;3.85;;;1.80;;
58123;SDS011;46725;48.068;20.832;2022-09-03T15:10:51;4.70;;;1.88;;
58123;SDS011;46725;48.068;20.832;2022-09-03T15:21:03;3.47;;;1.80;;
58123;SDS011;46725;48.068;20.832;2022-09-03T15:23:51;5.13;;;1.83;;
58123;SDS011;46725;48.068;20.832;2022-09-03T15:29:15;3.65;;;1.80;;
58123;SDS011;46725;48.068;20.832;2022-09-03T15:36:44;2.90;;;1.40;;
58123;SDS011;46725;48.068;20.832;2022-09-03T15:41:45;4.10;;;1.75;;
58123;SDS011;46725;48.068;20.832;2022-09-03T15:44:15;3.35;;;1.65;;
58123;SDS011;46725;48.068;20.832;2022-09-03T15:49:20;3.13;;;1.55;;
58123;SDS011;46725;48.068;20.832;2022-09-03T15:57:12;3.03;;;1.40;;
58123;SDS011;46725;48.068;20.832;2022-09-03T15:59:50;4.88;;;1.73;;
58123;SDS011;46725;48.068;20.832;2022-09-03T16:02:17;4.03;;;1.90;;
58123;SDS011;46725;48.068;20.832;2022-09-03T16:10:17;3.30;;;1.58;;
58123;SDS011;46725;48.068;20.832;2022-09-03T16:12:46;3.90;;;1.60;;
58123;SDS011;46725;48.068;20.832;2022-09-03T16:20:31;3.90;;;1.63;;
58123;SDS011;46725;48.068;20.832;2022-09-03T16:23:15;6.57;;;2.08;;
58123;SDS011;46725;48.068;20.832;2022-09-03T16:25:47;4.43;;;1.88;;
58123;SDS011;46725;48.068;20.832;2022-09-03T16:28:19;3.80;;;1.38;;
58123;SDS011;46725;48.068;20.832;2022-09-03T16:30:57;4.68;;;1.60;;
58123;SDS011;46725;48.068;20.832;2022-09-03T16:38:33;3.47;;;1.80;;
58123;SDS011;46725;48.068;20.832;2022-09-03T16:44:10;5.95;;;2.17;;
58123;SDS011;46725;48.068;20.832;2022-09-03T16:46:57;3.75;;;1.75;;
58123;SDS011;46725;48.068;20.832;2022-09-03T17:00:11;4.05;;;1.60;;
58123;SDS011;46725;48.068;20.832;2022-09-03T17:13:32;4.35;;;2.17;;
58123;SDS011;46725;48.068;20.832;2022-09-03T17:15:31;6.53;;;2.90;;
58123;SDS011;46725;48.068;20.832;2022-09-03T17:30:57;4.32;;;1.42;;
58123;SDS011;46725;48.068;20.832;2022-09-03T17:36:32;5.97;;;1.43;;
58123;SDS011;46725;48.068;20.832;2022-09-03T17:41:48;3.78;;;1.40;;
58123;SDS011;46725;48.068;20.832;2022-09-03T17:44:19;3.05;;;1.10;;
58123;SDS011;46725;48.068;20.832;2022-09-03T17:52:29;3.78;;;1.00;;
58123;SDS011;46725;48.068;20.832;2022-09-03T17:58:07;3.92;;;1.70;;
58123;SDS011;46725;48.068;20.832;2022-09-03T18:00:50;5.18;;;2.33;;
58123;SDS011;46725;48.068;20.832;2022-09-03T18:06:03;5.15;;;2.47;;
58123;SDS011;46725;48.068;20.832;2022-09-03T18:11:20;5.55;;;1.20;;
58123;SDS011;46725;48.068;20.832;2022-09-03T18:16:27;2.47;;;1.15;;
58123;SDS011;46725;48.068;20.832;2022-09-03T18:18:58;2.60;;;1.10;;
58123;SDS011;46725;48.068;20.832;2022-09-03T18:21:27;3.42;;;1.40;;
58123;SDS011;46725;48.068;20.832;2022-09-03T18:24:19;2.70;;;1.10;;
58123;SDS011;46725;48.068;20.832;2022-09-03T18:27:12;4.60;;;1.00;;
58123;SDS011;46725;48.068;20.832;2022-09-03T18:30:09;2.53;;;1.00;;
58123;SDS011;46725;48.068;20.832;2022-09-03T18:32:55;2.42;;;1.05;;
58123;SDS011;46725;48.068;20.832;2022-09-03T18:35:42;2.33;;;0.98;;
58123;SDS011;46725;48.068;20.832;2022-09-03T18:38:36;3.67;;;1.23;;
58123;SDS011;46725;48.068;20.832;2022-09-03T18:47:15;3.97;;;1.15;;
58123;SDS011;46725;48.068;20.832;2022-09-03T18:50:04;4.05;;;1.20;;
58123;SDS011;46725;48.068;20.832;2022-09-03T18:52:54;3.72;;;1.33;;
58123;SDS011;46725;48.068;20.832;2022-09-03T19:01:46;2.80;;;1.20;;
58123;SDS011;46725;48.068;20.832;2022-09-03T19:10:24;3.47;;;1.40;;
58123;SDS011;46725;48.068;20.832;2022-09-03T19:13:26;3.03;;;1.33;;
58123;SDS011;46725;48.068;20.832;2022-09-03T19:21:53;5.40;;;1.73;;
58123;SDS011;46725;48.068;20.832;2022-09-03T19:24:39;3.40;;;1.55;;
58123;SDS011;46725;48.068;20.832;2022-09-03T19:27:33;3.42;;;1.50;;
58123;SDS011;46725;48.068;20.832;2022-09-03T19:30:23;3.00;;;1.38;;
58123;SDS011;46725;48.068;20.832;2022-09-03T19:33:14;4.10;;;1.30;;
58123;SDS011;46725;48.068;20.832;2022-09-03T19:38:51;3.30;;;1.30;;
58123;SDS011;46725;48.068;20.832;2022-09-03T19:42:00;3.47;;;1.38;;
58123;SDS011;46725;48.068;20.832;2022-09-03T19:51:08;5.07;;;1.52;;
58123;SDS011;46725;48.068;20.832;2022-09-03T19:53:54;3.45;;;1.38;;
58123;SDS011;46725;48.068;20.832;2022-09-03T19:56:40;3.35;;;1.50;;
58123;SDS011;46725;48.068;20.832;2022-09-03T19:59:33;3.10;;;1.40;;
58123;SDS011;46725;48.068;20.832;2022-09-03T20:02:19;3.35;;;1.30;;
58123;SDS011;46725;48.068;20.832;2022-09-03T20:05:05;2.53;;;1.05;;
58123;SDS011;46725;48.068;20.832;2022-09-03T20:07:51;3.22;;;1.17;;
58123;SDS011;46725;48.068;20.832;2022-09-03T20:10:38;3.33;;;1.35;;
58123;SDS011;46725;48.068;20.832;2022-09-03T20:13:10;3.05;;;1.10;;
58123;SDS011;46725;48.068;20.832;2022-09-03T20:30:55;4.10;;;1.15;;
58123;SDS011;46725;48.068;20.832;2022-09-03T20:36:01;4.90;;;1.13;;
58123;SDS011;46725;48.068;20.832;2022-09-03T20:46:28;3.25;;;1.40;;
58123;SDS011;46725;48.068;20.832;2022-09-03T20:51:31;3.20;;;1.48;;
58123;SDS011;46725;48.068;20.832;2022-09-03T20:54:11;5.00;;;2.20;;